createdAt,value
2022-08-17T00:02:26.518Z,68.34
2022-08-17T00:05:36.793Z,67.92
2022-08-17T00:08:48.473Z,68.70
2022-08-17T00:12:34.907Z,69.03
2022-08-17T00:15:15.003Z,69.98
2022-08-17T00:19:08.003Z,70.10
2022-08-17T00:22:30.746Z,71.56
2022-08-17T00:25:14.209Z,70.51
2022-08-17T00:28:17.076Z,71.42
2022-08-17T00:31:20.851Z,72.74
2022-08-17T00:34:25.146Z,72.15
2022-08-17T00:37:30.252Z,73.03
2022-08-17T00:40:44.250Z,72.86
2022-08-17T00:43:57.316Z,73.06
2022-08-17T00:46:59.440Z,73.25
2022-08-17T00:50:02.499Z,76.25
2022-08-17T00:53:05.690Z,74.69
2022-08-17T00:56:14.508Z,74.37
2022-08-17T00:59:20.451Z,75.14
2022-08-17T01:02:23.973Z,75.94
2022-08-17T01:05:30.913Z,75.75
2022-08-17T01:08:33.441Z,76.34
2022-08-17T01:11:40.571Z,76.76
2022-08-17T01:14:43.054Z,76.92
2022-08-17T01:17:46.372Z,78.80
2022-08-17T01:20:51.972Z,79.19
2022-08-17T01:23:54.235Z,78.56
2022-08-17T01:26:57.677Z,78.33
2022-08-17T01:30:05.435Z,79.42
2022-08-17T01:33:28.622Z,79.77
2022-08-17T01:36:30.731Z,79.39
2022-08-17T01:39:37.763Z,80.19
2022-08-17T01:42:48.425Z,80.28
2022-08-17T01:46:03.138Z,80.38
2022-08-17T01:49:08.695Z,80.51
2022-08-17T01:52:12.565Z,80.35
2022-08-17T01:55:17.719Z,81.32
2022-08-17T01:58:21.299Z,81.01
2022-08-17T02:01:26.972Z,79.73
2022-08-17T02:04:29.441Z,79.85
2022-08-17T02:07:31.568Z,79.26
2022-08-17T02:10:46.825Z,78.47
2022-08-17T02:13:57.797Z,77.95
2022-08-17T02:17:06.305Z,78.63
2022-08-17T02:20:09.951Z,76.79
2022-08-17T02:23:12.887Z,76.26
2022-08-17T02:26:26.071Z,76.65
2022-08-17T02:29:29.319Z,77.81
2022-08-17T02:32:31.459Z,76.97
2022-08-17T02:35:34.188Z,76.71
2022-08-17T02:38:37.799Z,77.31
2022-08-17T02:41:40.428Z,78.01
2022-08-17T02:44:42.551Z,78.08
2022-08-17T02:47:45.760Z,78.62
2022-08-17T02:50:48.297Z,77.79
2022-08-17T02:53:50.982Z,77.50
2022-08-17T02:56:53.118Z,77.66
2022-08-17T02:59:55.467Z,78.51
2022-08-17T03:02:58.003Z,78.28
2022-08-17T03:06:00.760Z,78.54
2022-08-17T03:09:03.619Z,79.59
2022-08-17T03:12:12.705Z,79.83
2022-08-17T03:15:18.552Z,79.40
2022-08-17T03:18:25.272Z,79.86
2022-08-17T03:21:28.176Z,79.92
2022-08-17T03:24:30.583Z,80.02
2022-08-17T03:27:32.775Z,80.56
2022-08-17T03:30:35.995Z,81.58
2022-08-17T03:33:38.128Z,81.85
2022-08-17T03:36:40.663Z,82.04
2022-08-17T03:39:43.013Z,82.60
2022-08-17T03:42:45.597Z,82.60
2022-08-17T03:46:27.076Z,82.51
2022-08-17T03:49:47.937Z,82.17
2022-08-17T03:53:09.175Z,83.62
2022-08-17T03:56:29.994Z,83.41
2022-08-17T03:59:32.524Z,82.67
2022-08-17T04:02:34.902Z,83.94
2022-08-17T04:05:37.792Z,84.39
2022-08-17T04:08:39.890Z,84.64
2022-08-17T04:11:42.652Z,84.61
2022-08-17T04:14:53.401Z,84.98
2022-08-17T04:17:57.169Z,84.79
2022-08-17T04:20:59.379Z,85.00
2022-08-17T04:24:03.193Z,85.39
2022-08-17T04:27:05.466Z,85.71
2022-08-17T04:30:08.677Z,85.73
2022-08-17T04:33:17.362Z,84.70
2022-08-17T04:36:20.140Z,83.99
2022-08-17T04:39:24.962Z,83.26
2022-08-17T04:42:27.448Z,82.86
2022-08-17T04:45:32.049Z,82.17
2022-08-17T04:48:38.094Z,82.17
2022-08-17T04:51:54.753Z,82.02
2022-08-17T04:55:04.806Z,82.39
2022-08-17T04:58:09.080Z,82.62
2022-08-17T05:01:11.812Z,82.38
2022-08-17T05:04:32.165Z,82.40
2022-08-17T05:07:37.102Z,82.87
2022-08-17T05:10:39.267Z,83.32
2022-08-17T05:13:50.267Z,82.83
2022-08-17T05:16:52.602Z,82.70
2022-08-17T05:19:55.067Z,82.92
2022-08-17T05:23:00.953Z,82.98
2022-08-17T05:26:03.850Z,82.75
2022-08-17T05:29:09.146Z,82.71
2022-08-17T05:32:39.691Z,82.59
2022-08-17T05:35:37.932Z,82.95
2022-08-17T05:38:40.479Z,83.50
2022-08-17T05:41:42.637Z,82.98
2022-08-17T05:44:45.031Z,82.21
2022-08-17T05:47:47.570Z,82.16
2022-08-17T05:51:11.542Z,82.10
2022-08-17T05:54:39.465Z,82.52
2022-08-17T05:57:47.668Z,81.48
2022-08-17T06:01:39.977Z,80.42
2022-08-17T06:04:53.085Z,79.92
2022-08-17T06:08:02.645Z,79.15
2022-08-17T06:11:16.879Z,78.83
2022-08-17T06:14:55.385Z,78.54
2022-08-17T06:21:06.694Z,77.02
2022-08-17T06:24:51.361Z,76.71
2022-08-17T06:28:00.420Z,76.50
2022-08-17T06:31:19.959Z,76.12
2022-08-17T06:34:22.070Z,76.07
2022-08-17T06:38:00.152Z,76.21
2022-08-17T06:41:17.275Z,75.50
2022-08-17T06:44:49.753Z,74.62
2022-08-17T06:48:02.242Z,75.10
2022-08-17T06:51:18.998Z,73.66
2022-08-17T06:54:34.587Z,72.79
2022-08-17T06:57:41.311Z,72.69
2022-08-17T07:00:47.156Z,72.34
2022-08-17T07:03:59.027Z,71.32
2022-08-17T07:07:28.571Z,70.92
2022-08-17T07:10:43.003Z,70.78
2022-08-17T07:13:52.212Z,69.98
2022-08-17T07:16:58.450Z,69.48
2022-08-17T07:20:09.706Z,68.20
2022-08-17T07:23:37.787Z,67.40
2022-08-17T07:26:39.887Z,65.96
2022-08-17T07:29:47.913Z,65.44
2022-08-17T07:32:57.743Z,63.85
2022-08-17T07:36:00.880Z,61.41
2022-08-17T07:39:04.989Z,59.34
2022-08-17T07:42:10.290Z,58.44
2022-08-17T07:45:34.645Z,57.05
2022-08-17T07:48:40.473Z,55.05
2022-08-17T07:51:42.517Z,54.16
2022-08-17T07:54:44.923Z,53.64
2022-08-17T07:57:56.817Z,53.25
2022-08-17T08:01:06.030Z,51.30
2022-08-17T08:04:20.044Z,50.81
2022-08-17T08:07:55.029Z,47.85
2022-08-17T08:11:05.546Z,47.17
2022-08-17T08:14:32.653Z,46.04
2022-08-17T08:17:45.424Z,45.29
2022-08-17T08:20:53.110Z,43.26
2022-08-17T08:24:31.512Z,42.62
2022-08-17T08:27:50.220Z,40.63
2022-08-17T08:31:06.562Z,39.91
2022-08-17T08:34:58.894Z,39.42
2022-08-17T08:38:13.230Z,39.07
2022-08-17T08:41:26.249Z,38.81
2022-08-17T08:45:00.719Z,37.43
2022-08-17T08:48:56.768Z,36.47
2022-08-17T08:51:56.162Z,35.68
2022-08-17T08:55:35.604Z,34.79
2022-08-17T08:59:05.156Z,34.11
2022-08-17T09:02:20.767Z,32.96
2022-08-17T09:05:48.556Z,33.85
2022-08-17T09:09:15.845Z,33.97
2022-08-17T09:12:25.173Z,33.33
2022-08-17T09:15:33.465Z,32.16
2022-08-17T09:19:00.582Z,31.48
2022-08-17T09:22:17.425Z,31.70
2022-08-17T09:25:26.900Z,32.05
2022-08-17T09:28:35.127Z,32.82
2022-08-17T09:31:49.461Z,32.41
2022-08-17T09:34:57.127Z,32.57
2022-08-17T09:38:06.850Z,32.76
2022-08-17T09:41:25.050Z,32.98
2022-08-17T09:45:03.091Z,32.72
2022-08-17T09:48:23.205Z,32.17
2022-08-17T09:51:34.935Z,31.63
2022-08-17T09:54:40.843Z,32.00
2022-08-17T09:57:58.603Z,33.22
2022-08-17T10:01:18.592Z,34.37
2022-08-17T10:04:29.359Z,35.87
2022-08-17T10:07:40.509Z,37.45
2022-08-17T10:10:56.490Z,37.98
2022-08-17T10:14:36.487Z,36.77
2022-08-17T10:17:43.730Z,35.12
2022-08-17T10:21:39.876Z,31.06
2022-08-17T10:25:23.474Z,31.35
2022-08-17T10:28:32.152Z,29.98
2022-08-17T10:32:03.426Z,30.26
2022-08-17T10:35:16.593Z,29.79
2022-08-17T10:38:27.667Z,30.94
2022-08-17T10:41:40.802Z,30.22
2022-08-17T10:44:56.246Z,30.13
2022-08-17T10:48:39.683Z,31.16
2022-08-17T10:51:42.118Z,29.43
2022-08-17T10:54:49.178Z,28.61
2022-08-17T10:57:54.755Z,29.96
2022-08-17T11:00:58.497Z,29.67
2022-08-17T11:04:17.751Z,27.50
2022-08-17T11:07:35.255Z,27.26
2022-08-17T11:10:58.641Z,27.66
2022-08-17T11:14:18.865Z,27.93
2022-08-17T11:17:50.167Z,27.74
2022-08-17T11:21:17.490Z,28.35
2022-08-17T11:24:50.294Z,27.13
2022-08-17T11:28:24.723Z,28.09
2022-08-17T11:31:39.321Z,28.31
2022-08-17T11:34:44.541Z,29.01
2022-08-17T11:38:04.979Z,29.60
2022-08-17T11:41:29.047Z,30.20
2022-08-17T11:44:53.535Z,30.44
2022-08-17T11:48:28.444Z,31.17
2022-08-17T11:52:16.620Z,31.14
2022-08-17T11:55:38.242Z,32.28
2022-08-17T11:58:44.467Z,32.81
2022-08-17T12:01:46.877Z,32.80
2022-08-17T12:05:27.325Z,32.58
2022-08-17T12:08:33.868Z,32.33
2022-08-17T12:12:13.116Z,30.38
2022-08-17T12:15:18.882Z,29.47
2022-08-17T12:18:31.915Z,29.99
2022-08-17T12:21:51.351Z,30.50
2022-08-17T12:24:59.327Z,30.85
2022-08-17T12:28:06.304Z,29.46
2022-08-17T12:31:26.221Z,29.19
2022-08-17T12:34:36.019Z,28.64
2022-08-17T12:37:47.280Z,28.45
2022-08-17T12:40:58.075Z,28.20
2022-08-17T12:44:32.223Z,28.32
2022-08-17T12:47:37.725Z,28.70
2022-08-17T12:50:45.773Z,28.54
2022-08-17T12:53:55.478Z,28.40
2022-08-17T12:57:05.430Z,27.94
2022-08-17T13:00:25.242Z,27.62
2022-08-17T13:03:36.324Z,27.58
2022-08-17T13:06:48.816Z,27.92
2022-08-17T13:09:51.530Z,27.76
2022-08-17T13:12:54.424Z,27.09
2022-08-17T13:16:14.356Z,27.27
2022-08-17T13:19:29.732Z,27.46
2022-08-17T13:22:44.451Z,27.51
2022-08-17T13:25:58.466Z,26.23
2022-08-17T13:29:05.993Z,26.59
2022-08-17T13:32:11.536Z,26.85
2022-08-17T13:35:38.911Z,26.71
2022-08-17T13:38:49.512Z,25.52
2022-08-17T13:41:53.918Z,25.93
2022-08-17T13:44:56.485Z,25.52
2022-08-17T13:48:25.848Z,25.42
2022-08-17T13:51:41.670Z,26.18
2022-08-17T13:54:51.713Z,25.35
2022-08-17T13:58:07.237Z,25.32
2022-08-17T14:01:31.795Z,25.69
2022-08-17T14:04:35.373Z,25.26
2022-08-17T14:07:39.732Z,25.86
2022-08-17T14:10:45.025Z,25.38
2022-08-17T14:13:47.153Z,25.31
2022-08-17T14:16:51.156Z,24.93
2022-08-17T14:19:53.280Z,24.98
2022-08-17T14:22:55.850Z,25.52
2022-08-17T14:25:57.958Z,25.50
2022-08-17T14:29:00.531Z,25.13
2022-08-17T14:32:11.591Z,25.14
2022-08-17T14:35:15.628Z,25.72
2022-08-17T14:38:18.761Z,25.83
2022-08-17T14:41:23.415Z,25.21
2022-08-17T14:44:25.584Z,24.70
2022-08-17T14:47:28.009Z,25.19
2022-08-17T14:50:30.211Z,25.93
2022-08-17T14:53:34.203Z,25.53
2022-08-17T14:56:38.044Z,25.45
2022-08-17T14:59:40.587Z,24.61
2022-08-17T15:02:53.750Z,25.03
2022-08-17T15:05:56.243Z,25.84
2022-08-17T15:08:58.373Z,26.09
2022-08-17T15:12:02.268Z,26.23
2022-08-17T15:15:06.188Z,26.05
2022-08-17T15:18:08.600Z,25.97
2022-08-17T15:21:10.838Z,26.43
2022-08-17T15:24:13.955Z,26.05
2022-08-17T15:27:16.286Z,26.33
2022-08-17T15:30:31.471Z,26.02
2022-08-17T15:33:34.008Z,26.58
2022-08-17T15:36:37.009Z,26.61
2022-08-17T15:39:40.993Z,25.61
2022-08-17T15:42:43.430Z,25.91
2022-08-17T15:45:58.598Z,25.89
2022-08-17T15:49:02.206Z,26.17
2022-08-17T15:52:15.739Z,26.07
2022-08-17T15:55:23.843Z,26.12
2022-08-17T15:58:29.994Z,25.34
2022-08-17T16:03:01.470Z,25.85
2022-08-17T16:05:08.737Z,26.03
2022-08-17T16:08:15.865Z,26.40
2022-08-17T16:11:22.453Z,26.68
2022-08-17T16:14:32.325Z,26.35
2022-08-17T16:17:40.109Z,26.57
2022-08-17T16:20:43.143Z,26.75
2022-08-17T16:23:47.491Z,27.05
2022-08-17T16:26:51.988Z,26.12
2022-08-17T16:29:54.377Z,26.68
2022-08-17T16:33:00.997Z,26.33
2022-08-17T16:36:03.744Z,26.35
2022-08-17T16:39:05.873Z,26.00
2022-08-17T16:42:27.498Z,25.88
2022-08-17T16:45:36.559Z,26.29
2022-08-17T16:48:39.236Z,26.79
2022-08-17T16:51:41.501Z,26.17
2022-08-17T16:54:46.849Z,26.52
2022-08-17T16:57:50.298Z,26.42
2022-08-17T17:00:54.332Z,26.63
2022-08-17T17:04:02.448Z,27.15
2022-08-17T17:07:33.709Z,26.80
2022-08-17T17:10:49.163Z,26.67
2022-08-17T17:13:56.455Z,26.84
2022-08-17T17:17:10.685Z,27.08
2022-08-17T17:20:18.036Z,27.26
2022-08-17T17:23:37.605Z,27.51
2022-08-17T17:27:07.086Z,27.62
2022-08-17T17:30:09.406Z,28.25
2022-08-17T17:33:19.139Z,28.44
2022-08-17T17:36:31.611Z,29.48
2022-08-17T17:39:50.029Z,30.48
2022-08-17T17:43:09.286Z,33.17
2022-08-17T17:46:28.713Z,32.34
2022-08-17T17:49:37.057Z,32.41
2022-08-17T17:52:47.074Z,32.11
2022-08-17T17:56:05.278Z,35.41
2022-08-17T17:59:26.624Z,37.64
2022-08-17T18:02:51.673Z,34.28
2022-08-17T18:06:18.626Z,33.66
2022-08-17T18:09:33.868Z,33.74
2022-08-17T18:12:42.656Z,33.89
2022-08-17T18:15:51.513Z,33.94
2022-08-17T18:18:54.087Z,34.18
2022-08-17T18:22:18.603Z,35.40
2022-08-17T18:25:44.444Z,34.50
2022-08-17T18:28:51.184Z,34.03
2022-08-17T18:32:24.631Z,34.06
2022-08-17T18:35:30.202Z,34.18
2022-08-17T18:38:41.939Z,35.37
2022-08-17T18:41:51.161Z,36.79
2022-08-17T18:44:55.497Z,37.95
2022-08-17T18:47:57.842Z,37.09
2022-08-17T18:51:40.752Z,37.64
2022-08-17T18:55:12.506Z,37.36
2022-08-17T18:58:20.205Z,36.29
2022-08-17T19:01:52.058Z,36.68
2022-08-17T19:05:07.769Z,36.78
2022-08-17T19:08:28.338Z,37.45
2022-08-17T19:11:34.060Z,37.86
2022-08-17T19:14:36.554Z,37.86
2022-08-17T19:18:00.452Z,37.81
2022-08-17T19:21:17.852Z,37.60
2022-08-17T19:24:23.744Z,37.36
2022-08-17T19:27:46.258Z,37.77
2022-08-17T19:30:57.391Z,37.78
2022-08-17T19:34:00.446Z,38.50
2022-08-17T19:37:11.371Z,38.61
2022-08-17T19:40:51.714Z,38.93
2022-08-17T19:44:14.362Z,39.46
2022-08-17T19:47:54.878Z,39.20
2022-08-17T19:51:10.647Z,39.46
2022-08-17T19:54:21.518Z,39.57
2022-08-17T19:57:57.156Z,39.37
2022-08-17T20:01:00.087Z,40.60
2022-08-17T20:04:09.260Z,39.44
2022-08-17T20:07:24.278Z,39.49
2022-08-17T20:10:30.555Z,40.03
2022-08-17T20:13:48.973Z,40.74
2022-08-17T20:16:51.495Z,41.71
2022-08-17T20:20:07.379Z,43.07
2022-08-17T20:23:36.923Z,41.77
2022-08-17T20:26:55.515Z,42.64
2022-08-17T20:30:12.941Z,42.68
2022-08-17T20:33:29.385Z,44.97
2022-08-17T20:36:36.812Z,43.65
2022-08-17T20:39:41.666Z,44.23
2022-08-17T20:42:44.073Z,44.29
2022-08-17T20:46:01.794Z,44.77
2022-08-17T20:49:30.956Z,44.84
2022-08-17T20:52:50.806Z,45.22
2022-08-17T20:55:55.804Z,44.82
2022-08-17T20:58:58.940Z,44.61
2022-08-17T21:02:18.664Z,44.62
2022-08-17T21:05:37.085Z,45.13
2022-08-17T21:08:57.956Z,44.87
2022-08-17T21:12:04.252Z,45.25
2022-08-17T21:15:34.923Z,45.65
2022-08-17T21:18:57.887Z,46.52
2022-08-17T21:22:24.551Z,47.36
2022-08-17T21:25:48.193Z,47.92
2022-08-17T21:29:29.759Z,48.38
2022-08-17T21:32:33.905Z,48.19
2022-08-17T21:35:48.557Z,48.39
2022-08-17T21:38:58.330Z,48.88
2022-08-17T21:42:00.889Z,49.27
2022-08-17T21:45:20.439Z,49.65
2022-08-17T21:48:25.385Z,50.04
2022-08-17T21:51:29.305Z,50.88
2022-08-17T21:54:35.422Z,50.74
2022-08-17T21:57:41.738Z,50.53
2022-08-17T22:01:23.758Z,51.22
2022-08-17T22:04:41.669Z,51.95
2022-08-17T22:07:50.784Z,51.60
2022-08-17T22:11:02.258Z,51.93
2022-08-17T22:14:16.728Z,51.95
2022-08-17T22:17:29.063Z,52.06
2022-08-17T22:20:31.378Z,52.49
2022-08-17T22:24:04.287Z,53.04
2022-08-17T22:27:11.083Z,53.20
2022-08-17T22:30:24.962Z,53.87
2022-08-17T22:33:33.340Z,53.98
2022-08-17T22:36:37.525Z,53.78
2022-08-17T22:39:40.747Z,53.09
2022-08-17T22:42:48.551Z,52.38
2022-08-17T22:45:54.543Z,53.02
2022-08-17T22:48:59.460Z,51.29
2022-08-17T22:52:32.474Z,53.32
2022-08-17T22:55:53.620Z,52.35
2022-08-17T22:59:17.662Z,52.83
2022-08-17T23:02:30.867Z,52.80
2022-08-17T23:05:34.084Z,53.88
2022-08-17T23:08:51.223Z,53.50
2022-08-17T23:11:58.935Z,54.24
2022-08-17T23:15:02.247Z,54.43
2022-08-17T23:18:04.853Z,55.24
2022-08-17T23:21:07.719Z,54.42
2022-08-17T23:24:11.845Z,55.65
2022-08-17T23:27:14.405Z,55.09
2022-08-17T23:30:16.611Z,55.05
2022-08-17T23:33:29.971Z,55.21
2022-08-17T23:36:32.436Z,55.43
2022-08-17T23:39:35.107Z,55.18
2022-08-17T23:42:46.179Z,55.09
2022-08-17T23:45:48.845Z,55.76
2022-08-17T23:48:54.008Z,56.33
2022-08-17T23:51:56.593Z,56.15
2022-08-17T23:54:59.361Z,56.93
2022-08-17T23:58:04.447Z,58.97
